Time;durP1;ratioP1;P1;durP2;ratioP2;P2;SDS_P1;SDS_P2;PMS_P1;PMS_P2;Temp;Humidity;BMP_temperature;BMP_pressure;BME280_temperature;BME280_humidity;BME280_pressure;Samples;Min_cycle;Max_cycle;Signal;HPM_P1;HPM_P2
2022/06/02 00:00:57;;;;;;;3.47;2.63;;;;;;;17.93;65.45;99163.38;5086624;28;20236;-75
2022/06/02 00:03:29;;;;;;;3.25;2.65;;;;;;;16.98;64.30;98997.53;5086982;28;20059;-75
2022/06/02 00:06:10;;;;;;;5.10;3.00;;;;;;;18.09;65.70;99168.22;5087190;28;20052;-75
2022/06/02 00:08:50;;;;;;;5.15;2.58;;;;;;;18.12;65.55;99158.06;5086184;28;20057;-75
2022/06/02 00:11:34;;;;;;;5.03;2.88;;;;;;;18.23;65.68;99163.31;5086517;28;20060;-75
2022/06/02 00:14:10;;;;;;;3.70;2.75;;;;;;;18.17;65.65;99154.97;5086120;28;20056;-75
2022/06/02 00:16:51;;;;;;;4.13;2.88;;;;;;;18.15;66.04;99162.31;5086376;28;20064;-75
2022/06/02 00:19:29;;;;;;;4.00;2.72;;;;;;;18.01;66.70;99158.19;5086299;28;20052;-75
2022/06/02 00:22:01;;;;;;;4.60;3.00;;;;;;;17.95;66.28;99161.41;5086138;28;20061;-75
2022/06/02 00:24:41;;;;;;;4.40;2.63;;;;;;;17.93;66.90;99184.81;5086181;28;20201;-76
2022/06/02 00:27:20;;;;;;;3.45;2.50;;;;;;;18.01;66.61;99187.69;5085857;28;20109;-75
2022/06/02 00:29:57;;;;;;;3.22;2.65;;;;;;;18.02;66.22;99167.94;5085856;28;20260;-75
2022/06/02 00:32:38;;;;;;;3.95;2.70;;;;;;;18.05;66.68;99175.69;5085774;28;20060;-75
2022/06/02 00:35:20;;;;;;;3.05;2.60;;;;;;;17.92;66.55;99167.03;5086166;28;20052;-75
2022/06/02 00:37:53;;;;;;;4.38;2.58;;;;;;;17.92;66.07;99165.22;5086332;28;20052;-75
2022/06/02 00:40:22;;;;;;;4.03;2.45;;;;;;;17.03;65.20;99023.03;5085840;28;20262;-75
2022/06/02 00:42:58;;;;;;;3.80;2.50;;;;;;;17.90;66.53;99159.13;5086293;28;20052;-75
2022/06/02 00:45:26;;;;;;;4.78;3.30;;;;;;;17.75;66.00;99157.81;5085625;28;20114;-76
2022/06/02 00:48:06;;;;;;;3.45;2.60;;;;;;;17.77;66.75;99153.16;5085659;28;20089;-75
2022/06/02 00:50:50;;;;;;;3.83;2.70;;;;;;;17.72;67.48;99154.53;5085895;28;20057;-75
2022/06/02 00:53:32;;;;;;;3.50;2.60;;;;;;;17.74;67.00;99157.94;5085806;28;20074;-75
2022/06/02 00:59:16;;;;;;;3.75;2.85;;;;;;;17.55;67.32;99105.06;5085754;28;20048;-75
2022/06/02 01:01:43;;;;;;;5.13;2.53;;;;;;;17.94;65.22;99159.72;5085553;28;20056;-74
2022/06/02 01:04:12;;;;;;;3.92;2.88;;;;;;;17.93;65.66;99152.66;5085754;28;20106;-75
2022/06/02 01:06:56;;;;;;;3.90;2.90;;;;;;;17.86;67.18;99155.03;5085906;28;20057;-75
2022/06/02 01:09:45;;;;;;;3.53;2.58;;;;;;;17.82;67.70;99161.66;5085676;28;20052;-75
2022/06/02 01:12:34;;;;;;;4.85;2.90;;;;;;;17.84;67.57;99166.88;5085791;28;20060;-75
2022/06/02 01:15:11;;;;;;;4.53;2.65;;;;;;;17.82;66.58;99158.97;5085524;28;20189;-75
2022/06/02 01:17:51;;;;;;;4.85;2.95;;;;;;;17.79;67.59;99163.75;5085269;28;20074;-76
2022/06/02 01:20:38;;;;;;;4.07;2.55;;;;;;;17.61;67.78;99156.34;5085169;28;20102;-76
2022/06/02 01:23:32;;;;;;;4.55;3.58;;;;;;;17.66;68.70;99152.41;5082718;28;20052;-75
2022/06/02 01:26:22;;;;;;;4.32;3.25;;;;;;;17.61;68.56;99156.34;5085628;28;20106;-75
2022/06/02 01:28:59;;;;;;;3.28;2.78;;;;;;;17.45;67.94;99144.38;5085237;28;20102;-75
2022/06/02 01:31:44;;;;;;;3.65;2.30;;;;;;;17.71;67.56;99164.41;5085060;28;20094;-76
2022/06/02 01:34:26;;;;;;;5.40;3.03;;;;;;;17.75;67.63;99162.31;5045274;28;20065;-75
2022/06/02 01:37:03;;;;;;;3.92;2.63;;;;;;;17.68;67.68;99170.03;5045124;28;20111;-75
2022/06/02 01:39:42;;;;;;;4.50;3.20;;;;;;;17.66;67.34;99165.81;5045429;28;20244;-75
2022/06/02 01:42:22;;;;;;;3.40;2.80;;;;;;;17.60;67.61;99151.91;5045084;28;20248;-75
2022/06/02 01:44:58;;;;;;;5.10;2.80;;;;;;;14.78;67.57;98699.19;5045520;28;20061;-75
2022/06/02 01:47:33;;;;;;;5.50;4.68;;;;;;;17.67;67.63;99162.13;5045759;28;20109;-76
2022/06/02 01:50:13;;;;;;;19.42;16.50;;;;;;;17.68;68.27;99153.13;5045653;28;20061;-76
2022/06/02 01:52:49;;;;;;;18.17;14.05;;;;;;;16.70;67.57;98998.22;5045479;28;20061;-75
2022/06/02 01:55:30;;;;;;;17.95;13.75;;;;;;;16.16;67.45;98908.31;5045357;28;20045;-75
2022/06/02 01:58:13;;;;;;;6.57;5.68;;;;;;;17.54;68.64;99167.69;5045277;28;20115;-76
2022/06/02 02:00:44;;;;;;;5.38;3.88;;;;;;;17.54;67.23;99163.19;5044867;28;20225;-76
2022/06/02 02:03:23;;;;;;;4.95;4.05;;;;;;;17.17;68.74;99105.69;5045451;28;20080;-76
2022/06/02 02:06:07;;;;;;;5.25;3.13;;;;;;;17.47;68.98;99159.34;5045158;28;20065;-75
2022/06/02 02:09:06;;;;;;;4.32;3.10;;;;;;;17.38;69.63;99170.84;5046888;28;20061;-76
2022/06/02 02:11:48;;;;;;;3.95;2.88;;;;;;;17.42;68.96;99161.56;5037539;28;20049;-75
2022/06/02 02:14:28;;;;;;;4.30;3.40;;;;;;;17.10;68.86;99125.94;5048815;28;20313;-75
2022/06/02 02:17:05;;;;;;;3.80;3.00;;;;;;;16.44;69.26;99035.19;5048647;28;20061;-75
2022/06/02 02:19:39;;;;;;;3.90;2.88;;;;;;;17.24;69.26;99168.50;5048551;28;20111;-75
2022/06/02 02:22:15;;;;;;;4.95;3.33;;;;;;;17.28;68.68;99170.78;5048461;28;20100;-75
2022/06/02 02:24:58;;;;;;;4.78;3.30;;;;;;;17.28;68.72;99173.47;5048649;28;20061;-75
2022/06/02 02:28:02;;;;;;;4.70;2.95;;;;;;;17.29;67.99;99171.63;5048245;28;20284;-75
2022/06/02 02:30:23;;;;;;;;;;;;;;;17.19;69.66;99176.03;5048584;28;20053;-75
2022/06/02 02:32:57;;;;;;;3.67;2.70;;;;;;;17.21;68.94;99174.13;5067289;28;19989;-75
2022/06/02 02:35:35;;;;;;;3.58;2.60;;;;;;;17.22;67.94;99182.03;5088322;28;20052;-75
2022/06/02 02:38:09;;;;;;;6.65;2.97;;;;;;;16.84;68.38;99190.56;5087216;28;20086;-75
2022/06/02 02:40:41;;;;;;;;;;;;;;;17.06;69.00;99178.91;5088875;28;20052;-75
2022/06/02 02:43:15;;;;;;;4.38;2.30;;;;;;;16.86;67.66;99150.31;5088177;28;20193;-76
2022/06/02 02:45:47;;;;;;;3.92;2.80;;;;;;;16.98;67.86;99184.06;5087848;28;20382;-75
2022/06/02 02:48:23;;;;;;;5.35;2.35;;;;;;;16.26;68.17;99112.44;5088844;28;20105;-76
2022/06/02 02:50:57;;;;;;;4.10;2.60;;;;;;;16.85;68.46;99170.88;5088577;28;20052;-75
2022/06/02 02:53:33;;;;;;;3.58;2.55;;;;;;;16.92;68.04;99169.38;5088890;28;20105;-75
2022/06/02 02:56:07;;;;;;;3.55;2.63;;;;;;;16.88;67.54;99169.75;5087944;28;20064;-75
2022/06/02 02:58:42;;;;;;;3.08;2.42;;;;;;;16.80;67.67;99175.75;5088033;28;20059;-75
2022/06/02 03:01:18;;;;;;;4.15;2.63;;;;;;;16.48;67.69;99140.09;5087646;28;20217;-75
2022/06/02 03:03:54;;;;;;;3.60;2.75;;;;;;;16.62;68.56;99172.75;5088002;28;20077;-75
2022/06/02 03:06:26;;;;;;;4.40;3.17;;;;;;;16.72;68.00;99183.56;5087500;28;20057;-75
2022/06/02 03:09:03;;;;;;;4.25;2.97;;;;;;;16.81;68.01;99184.63;5087517;28;20063;-75
2022/06/02 03:11:54;;;;;;;3.42;2.55;;;;;;;16.80;67.45;99175.75;5087649;28;20052;-75
2022/06/02 03:14:42;;;;;;;4.75;2.72;;;;;;;16.83;68.25;99170.16;5087592;28;20067;-75
2022/06/02 03:17:22;;;;;;;3.33;2.65;;;;;;;16.37;67.14;99095.50;5087619;28;20324;-75
2022/06/02 03:19:59;;;;;;;3.35;2.53;;;;;;;16.88;66.98;99181.31;5086344;28;20056;-75
2022/06/02 03:22:40;;;;;;;2.97;2.47;;;;;;;16.78;67.23;99214.31;5087341;28;20057;-75
2022/06/02 03:25:15;;;;;;;3.15;2.40;;;;;;;15.94;67.23;99058.94;5087317;28;20053;-75
2022/06/02 03:27:55;;;;;;;4.50;2.53;;;;;;;16.65;67.47;99180.53;5087327;28;20240;-75
2022/06/02 03:30:25;;;;;;;3.53;2.55;;;;;;;16.76;67.19;99173.47;5086969;28;20053;-75
2022/06/02 03:33:04;;;;;;;4.07;2.80;;;;;;;16.06;67.20;99073.13;5086702;28;20056;-76
2022/06/02 03:35:38;;;;;;;3.85;2.65;;;;;;;16.76;67.04;99176.13;5087318;28;20331;-75
2022/06/02 03:38:20;;;;;;;3.45;2.63;;;;;;;16.49;67.28;99139.97;5087605;28;20205;-75
2022/06/02 03:41:06;;;;;;;3.55;2.80;;;;;;;16.67;67.07;99154.53;5087106;28;20057;-75
2022/06/02 03:43:43;;;;;;;3.75;2.83;;;;;;;16.87;66.53;99186.78;5085977;28;20044;-75
2022/06/02 03:46:21;;;;;;;3.33;2.47;;;;;;;16.88;67.08;99184.00;5086679;28;20102;-75
2022/06/02 03:49:06;;;;;;;4.18;2.28;;;;;;;16.93;66.89;99189.81;5086632;28;20056;-75
2022/06/02 03:51:40;;;;;;;;;;;;;;;16.87;68.09;99186.78;5087490;28;20057;-75
2022/06/02 03:54:44;;;;;;;4.00;2.47;;;;;;;16.86;67.73;99185.09;5087403;28;19920;-75
2022/06/02 03:57:33;;;;;;;3.92;2.53;;;;;;;16.82;67.30;99189.00;5083613;28;20060;-75
2022/06/02 04:00:16;;;;;;;11.68;8.68;;;;;;;16.85;67.10;99191.44;5086671;28;20056;-75
2022/06/02 04:02:51;;;;;;;12.13;10.60;;;;;;;16.85;67.98;99199.47;5086626;28;20063;-75
2022/06/02 04:05:37;;;;;;;9.48;6.25;;;;;;;16.14;67.31;99083.19;5086405;28;20362;-75
2022/06/02 04:08:14;;;;;;;6.07;4.78;;;;;;;16.81;68.04;99203.38;5086547;28;20049;-75
2022/06/02 04:10:55;;;;;;;7.13;4.95;;;;;;;16.84;67.83;99214.66;5086524;28;20109;-75
2022/06/02 04:13:37;;;;;;;6.72;5.38;;;;;;;16.87;67.90;99216.25;5086432;28;20074;-75
2022/06/02 04:16:14;;;;;;;4.18;3.63;;;;;;;16.85;67.22;99227.06;5086332;28;20064;-75
2022/06/02 04:18:57;;;;;;;5.50;3.53;;;;;;;15.64;67.16;99024.84;5086642;28;20060;-75
2022/06/02 04:21:36;;;;;;;5.85;3.22;;;;;;;16.89;67.21;99216.97;5086304;28;20056;-75
2022/06/02 04:24:26;;;;;;;5.15;3.67;;;;;;;16.89;66.62;99223.16;5086337;28;20056;-75
2022/06/02 04:27:05;;;;;;;5.97;3.47;;;;;;;16.91;66.53;99223.88;5085850;28;20102;-75
2022/06/02 04:29:56;;;;;;;3.83;2.88;;;;;;;16.91;66.49;99225.72;5085835;28;20097;-75
2022/06/02 04:32:30;;;;;;;6.07;3.33;;;;;;;16.71;66.06;99183.69;5085548;28;20316;-75
2022/06/02 04:35:04;;;;;;;;;;;;;;;16.88;67.02;99232.16;5085214;28;20316;-76
2022/06/02 04:37:43;;;;;;;4.72;3.53;;;;;;;16.91;66.17;99223.03;5085873;28;19974;-75
2022/06/02 04:40:25;;;;;;;4.35;3.17;;;;;;;16.94;66.54;99220.94;5085790;28;20251;-75
2022/06/02 04:43:03;;;;;;;5.05;3.45;;;;;;;16.90;66.14;99214.16;5085670;28;20056;-75
2022/06/02 04:45:39;;;;;;;9.00;3.78;;;;;;;16.91;66.22;99223.03;5085976;28;20056;-75
2022/06/02 04:48:15;;;;;;;4.97;3.40;;;;;;;16.09;66.65;99098.75;5085546;28;20056;-75
2022/06/02 04:50:56;;;;;;;5.53;3.13;;;;;;;16.58;66.05;99167.78;5085679;28;20056;-75
2022/06/02 04:53:32;;;;;;;5.03;3.28;;;;;;;16.57;65.75;99169.59;5085822;28;20060;-76
2022/06/02 04:56:12;;;;;;;4.50;3.22;;;;;;;16.97;66.06;99242.13;5086387;28;20057;-75
2022/06/02 04:58:54;;;;;;;3.35;2.60;;;;;;;17.01;65.73;99248.06;5085962;28;20102;-75
2022/06/02 05:01:38;;;;;;;4.03;3.33;;;;;;;17.02;65.89;99251.59;5085955;28;20063;-75
2022/06/02 05:04:20;;;;;;;6.45;3.40;;;;;;;16.49;66.14;99200.63;5085679;28;20056;-75
2022/06/02 05:06:54;;;;;;;5.72;3.13;;;;;;;16.27;65.68;99185.50;5085431;28;20121;-75
2022/06/02 05:09:27;;;;;;;6.20;3.38;;;;;;;17.00;65.42;99273.97;5085403;28;20052;-75
2022/06/02 05:12:08;;;;;;;6.13;4.57;;;;;;;17.01;65.72;99269.47;5085640;28;20052;-75
2022/06/02 05:14:46;;;;;;;9.48;5.20;;;;;;;17.03;65.58;99269.34;5085372;28;20056;-75
2022/06/02 05:17:36;;;;;;;5.88;3.58;;;;;;;17.07;65.95;99266.28;5085608;28;20056;-76
2022/06/02 05:20:21;;;;;;;5.78;3.78;;;;;;;17.09;65.91;99282.22;5085459;28;20053;-75
2022/06/02 05:23:32;;;;;;;4.57;3.28;;;;;;;16.81;65.82;99228.31;5085374;28;20110;-75
2022/06/02 05:26:27;;;;;;;5.20;3.15;;;;;;;17.12;65.56;99260.56;5085045;28;20056;-76
2022/06/02 05:29:27;;;;;;;5.03;3.88;;;;;;;17.13;65.69;99263.09;5084214;28;20056;-76
2022/06/02 05:32:33;;;;;;;5.55;3.35;;;;;;;17.16;65.22;99265.53;5064048;28;20243;-74
2022/06/02 05:35:28;;;;;;;3.90;2.47;;;;;;;17.19;65.05;99272.44;5085446;28;20228;-75
2022/06/02 05:38:18;;;;;;;5.82;3.40;;;;;;;17.24;64.69;99284.50;5082127;28;20114;-74
2022/06/02 05:40:52;;;;;;;3.88;2.42;;;;;;;17.30;64.22;99285.81;5085547;28;20114;-75
2022/06/02 05:43:28;;;;;;;3.55;2.72;;;;;;;17.36;63.97;99279.94;5087169;28;20060;-75
2022/06/02 05:46:26;;;;;;;3.40;2.47;;;;;;;17.40;63.43;99278.72;5089335;28;20052;-74
2022/06/02 05:49:13;;;;;;;4.50;3.08;;;;;;;16.61;63.82;99144.28;5089364;28;20060;-75
2022/06/02 05:51:52;;;;;;;5.47;4.05;;;;;;;17.58;63.54;99271.78;5089161;28;20102;-75
2022/06/02 05:54:36;;;;;;;5.07;4.13;;;;;;;17.65;63.33;99264.09;5089011;28;20064;-75
2022/06/02 05:57:09;;;;;;;;;;;;;;;17.67;64.12;99263.97;5089552;28;20058;-75
2022/06/02 05:59:52;;;;;;;4.63;2.92;;;;;;;17.71;63.31;99276.13;5088860;28;19916;-75
2022/06/02 06:02:50;;;;;;;4.68;2.47;;;;;;;17.76;62.67;99266.72;5088404;28;20192;-76
2022/06/02 06:05:28;;;;;;;3.50;2.40;;;;;;;17.80;62.81;99260.09;5085963;28;20064;-76
2022/06/02 06:08:17;;;;;;;4.43;2.88;;;;;;;17.86;62.63;99266.78;5089056;28;20052;-75
2022/06/02 06:10:54;;;;;;;4.22;2.92;;;;;;;17.87;62.07;99271.16;5088667;28;20048;-75
2022/06/02 06:13:44;;;;;;;3.53;2.40;;;;;;;17.94;62.81;99277.69;5088875;28;20049;-76
2022/06/02 06:16:18;;;;;;;3.72;2.85;;;;;;;18.00;62.18;99287.88;5088571;28;20061;-76
2022/06/02 06:18:58;;;;;;;3.40;2.38;;;;;;;18.06;61.95;99289.19;5088813;28;20056;-75
2022/06/02 06:21:44;;;;;;;6.57;3.03;;;;;;;18.09;61.29;99292.44;5088544;28;20178;-76
2022/06/02 06:24:31;;;;;;;5.05;3.17;;;;;;;18.12;61.80;99294.00;5088467;28;20095;-76
2022/06/02 06:27:05;;;;;;;5.50;4.15;;;;;;;18.13;61.11;99301.06;5088315;28;20052;-75
2022/06/02 06:29:37;;;;;;;;;;;;;;;18.09;60.53;99305.84;5089565;28;20048;-76
2022/06/02 06:32:18;;;;;;;4.03;2.72;;;;;;;18.13;61.19;99301.91;5088547;28;19924;-76
2022/06/02 06:34:48;;;;;;;5.78;3.58;;;;;;;18.27;61.06;99316.81;5087431;28;20094;-76
2022/06/02 06:37:43;;;;;;;5.55;2.92;;;;;;;18.34;60.40;99315.28;5088465;28;20056;-76
2022/06/02 06:40:16;;;;;;;;;;;;;;;18.30;59.52;99324.59;5085566;28;20098;-76
2022/06/02 06:42:54;;;;;;;4.78;2.28;;;;;;;18.35;60.03;99325.03;5088395;28;20119;-76
2022/06/02 06:45:29;;;;;;;4.50;2.97;;;;;;;18.47;59.59;99325.78;5088097;28;20063;-76
2022/06/02 06:48:01;;;;;;;4.72;2.83;;;;;;;17.47;59.10;99169.19;5088223;28;20056;-76
2022/06/02 06:50:39;;;;;;;5.22;3.40;;;;;;;18.64;59.33;99319.81;5088116;28;20040;-76
2022/06/02 06:53:28;;;;;;;4.35;2.97;;;;;;;18.73;58.62;99339.59;5086834;28;20048;-76
2022/06/02 06:56:06;;;;;;;3.75;2.65;;;;;;;17.71;58.61;99171.59;5088130;28;20052;-75
2022/06/02 06:58:43;;;;;;;3.72;2.42;;;;;;;18.81;57.99;99346.00;5087130;28;20060;-76
2022/06/02 07:01:17;;;;;;;4.63;2.90;;;;;;;18.81;58.26;99350.50;5088055;28;20113;-76
2022/06/02 07:03:56;;;;;;;4.65;2.70;;;;;;;18.54;57.16;99341.25;5087817;28;20056;-76
2022/06/02 07:06:34;;;;;;;4.10;3.00;;;;;;;18.85;57.52;99350.09;5087903;28;20102;-76
2022/06/02 07:09:15;;;;;;;3.03;2.28;;;;;;;17.93;58.09;99209.81;5087900;28;20178;-76
2022/06/02 07:14:40;;;;;;;4.20;2.33;;;;;;;18.69;58.06;99328.28;5087821;28;20093;-76
2022/06/02 07:17:12;;;;;;;;;;;;;;;18.92;57.40;99367.38;5088475;28;20111;-76
2022/06/02 07:19:47;;;;;;;3.97;3.05;;;;;;;19.00;58.02;99365.81;5087890;28;19920;-76
2022/06/02 07:22:24;;;;;;;4.18;2.55;;;;;;;18.13;57.96;99234.88;5087537;28;20052;-76
2022/06/02 07:24:58;;;;;;;3.95;3.08;;;;;;;19.19;58.21;99363.19;5087449;28;20045;-76
2022/06/02 07:27:35;;;;;;;33.53;3.65;;;;;;;19.23;57.69;99373.50;5087750;28;20098;-75
2022/06/02 07:30:21;;;;;;;3.15;2.03;;;;;;;19.32;57.49;99377.19;5087701;28;20117;-76
2022/06/02 07:33:17;;;;;;;5.65;2.97;;;;;;;19.24;57.13;99334.91;5087011;28;20056;-76
2022/06/02 07:36:20;;;;;;;4.68;2.47;;;;;;;19.66;56.36;99379.50;5087302;28;20064;-76
2022/06/02 07:39:27;;;;;;;5.05;2.80;;;;;;;19.37;56.58;99294.31;5086659;28;20048;-75
2022/06/02 07:42:07;;;;;;;3.35;2.22;;;;;;;20.12;55.44;99382.34;5068448;28;20264;-76
2022/06/02 07:45:04;;;;;;;3.15;1.98;;;;;;;20.22;54.81;99395.78;5088316;28;20074;-76
2022/06/02 07:47:45;;;;;;;4.70;2.65;;;;;;;20.32;54.92;99390.41;5088683;28;20052;-76
2022/06/02 07:50:20;;;;;;;4.28;2.33;;;;;;;20.17;54.45;99337.00;5087478;28;20057;-75
2022/06/02 07:53:07;;;;;;;4.93;2.75;;;;;;;20.58;53.77;99393.28;5086815;28;20064;-76
2022/06/02 07:55:45;;;;;;;6.72;2.75;;;;;;;20.71;53.85;99391.97;5086422;28;20122;-76
2022/06/02 07:58:29;;;;;;;3.38;2.40;;;;;;;20.78;53.15;99398.44;5086614;28;20052;-76
2022/06/02 08:01:06;;;;;;;3.05;2.47;;;;;;;20.86;53.46;99396.84;5086456;28;20052;-76
2022/06/02 08:04:00;;;;;;;2.90;1.90;;;;;;;21.02;52.46;99395.25;5085245;28;20105;-76
2022/06/02 08:06:38;;;;;;;3.17;2.10;;;;;;;21.07;52.83;99394.78;5085915;28;20117;-76
2022/06/02 08:09:30;;;;;;;3.45;2.60;;;;;;;21.37;52.47;99388.22;5086090;28;20036;-76
2022/06/02 08:12:04;;;;;;;6.00;2.30;;;;;;;21.54;52.49;99382.00;5086350;28;20044;-76
2022/06/02 08:14:47;;;;;;;3.25;2.50;;;;;;;20.90;51.32;99269.81;5086206;28;20045;-76
2022/06/02 08:17:21;;;;;;;5.05;2.80;;;;;;;21.28;52.36;99343.31;5085837;28;20040;-76
2022/06/02 08:20:02;;;;;;;5.35;3.00;;;;;;;21.76;50.93;99375.28;5086141;28;20064;-76
2022/06/02 08:22:39;;;;;;;4.07;2.60;;;;;;;22.09;50.40;99379.13;5086024;28;20040;-76
2022/06/02 08:25:11;;;;;;;3.25;2.58;;;;;;;22.25;49.54;99364.91;5085887;28;20055;-76
2022/06/02 08:27:58;;;;;;;4.90;2.72;;;;;;;20.68;48.41;99089.81;5086045;28;20235;-76
2022/06/02 08:30:37;;;;;;;8.00;3.10;;;;;;;22.48;49.05;99374.19;5085598;28;20048;-76
2022/06/02 08:33:19;;;;;;;3.95;2.70;;;;;;;22.67;48.11;99382.09;5084885;28;20306;-76
2022/06/02 08:35:53;;;;;;;4.53;2.70;;;;;;;22.91;47.33;99383.22;5084822;28;20047;-76
2022/06/02 08:38:31;;;;;;;;;;;;;;;23.03;44.29;99377.34;5085929;28;20186;-76
2022/06/02 08:41:31;;;;;;;3.70;2.63;;;;;;;22.93;44.91;99386.59;5085206;28;19917;-76
2022/06/02 08:44:29;;;;;;;3.53;2.22;;;;;;;23.08;45.83;99384.97;5084878;28;20064;-76
2022/06/02 08:47:29;;;;;;;3.30;2.08;;;;;;;23.34;45.18;99379.50;5085216;28;20052;-76
2022/06/02 08:50:24;;;;;;;3.10;2.10;;;;;;;23.28;43.94;99383.72;5085308;28;20074;-76
2022/06/02 08:53:09;;;;;;;;;;;;;;;23.40;43.75;99388.81;5045452;28;20362;-76
2022/06/02 08:56:06;;;;;;;3.38;2.38;;;;;;;23.69;43.71;99384.63;5084823;28;20119;-76
2022/06/02 08:59:08;;;;;;;5.75;3.03;;;;;;;23.61;43.63;99343.19;5084751;28;20060;-76
2022/06/02 09:02:02;;;;;;;6.68;2.95;;;;;;;23.67;42.51;99337.09;5085595;28;20057;-76
2022/06/02 09:05:06;;;;;;;5.15;2.80;;;;;;;24.09;41.62;99374.84;5085144;28;20255;-76
2022/06/02 09:08:01;;;;;;;3.13;1.85;;;;;;;24.26;42.08;99381.09;5085190;28;20263;-76
2022/06/02 09:10:51;;;;;;;3.25;2.13;;;;;;;24.00;41.26;99341.53;5085519;28;20312;-76
2022/06/02 09:14:01;;;;;;;3.33;2.22;;;;;;;24.38;41.73;99378.88;5082015;28;20057;-76
2022/06/02 09:16:43;;;;;;;2.72;1.90;;;;;;;24.33;41.11;99374.81;5083782;28;20109;-77
2022/06/02 09:19:33;;;;;;;4.03;2.00;;;;;;;24.51;41.52;99381.88;5080586;28;20117;-76
2022/06/02 09:22:30;;;;;;;2.70;1.67;;;;;;;24.47;40.36;99375.13;5084958;28;20052;-76
2022/06/02 09:25:15;;;;;;;4.22;2.00;;;;;;;24.46;40.63;99378.84;5085195;28;20056;-76
2022/06/02 09:28:10;;;;;;;4.57;2.20;;;;;;;24.38;39.72;99387.00;5085185;28;20059;-76
2022/06/02 09:30:51;;;;;;;2.75;1.80;;;;;;;23.81;41.04;99276.06;5085615;28;20060;-76
2022/06/02 09:33:47;;;;;;;2.97;1.80;;;;;;;24.43;39.31;99403.56;5034531;28;1425715;-76
2022/06/02 09:37:01;;;;;;;3.80;2.25;;;;;;;24.22;38.65;99396.00;5085695;28;20098;-75
2022/06/02 09:39:41;;;;;;;4.07;1.75;;;;;;;24.11;39.61;99394.47;5039177;28;20057;-76
2022/06/02 09:42:54;;;;;;;2.63;1.70;;;;;;;24.19;39.24;99394.47;5085512;28;20351;-76
2022/06/02 09:45:43;;;;;;;4.00;1.77;;;;;;;24.45;39.71;99398.84;5004344;28;20183;-76
2022/06/02 09:48:23;;;;;;;3.55;1.70;;;;;;;24.46;39.90;99392.41;5004942;28;20061;-76
2022/06/02 09:51:16;;;;;;;4.38;2.35;;;;;;;24.53;39.93;99396.09;5060195;28;20244;-77
2022/06/02 09:54:02;;;;;;;3.08;2.13;;;;;;;24.42;39.70;99369.38;5085206;28;20091;-76
2022/06/02 09:56:47;;;;;;;2.95;2.08;;;;;;;24.44;39.57;99392.56;5085128;28;20064;-77
2022/06/02 09:59:30;;;;;;;3.67;2.10;;;;;;;24.65;40.23;99392.03;5085396;28;20110;-77
2022/06/02 10:02:16;;;;;;;3.60;2.43;;;;;;;24.91;39.25;99389.91;5085404;28;20047;-75
2022/06/02 10:05:20;;;;;;;2.97;2.13;;;;;;;25.05;38.44;99390.25;5085093;28;20458;-75
2022/06/02 10:08:07;;;;;;;3.05;1.90;;;;;;;24.90;38.96;99388.22;5084504;28;20052;-76
2022/06/02 10:10:47;;;;;;;2.50;1.80;;;;;;;24.88;40.04;99384.84;5085050;28;20040;-76
2022/06/02 10:13:38;;;;;;;4.03;2.13;;;;;;;24.57;38.27;99341.41;5085096;28;20114;-76
2022/06/02 10:16:36;;;;;;;2.80;1.75;;;;;;;24.69;38.85;99390.69;5085024;28;20086;-76
2022/06/02 10:19:32;;;;;;;4.60;2.05;;;;;;;24.73;39.00;99377.63;5083370;28;20106;-76
2022/06/02 10:22:09;;;;;;;3.25;1.85;;;;;;;24.93;39.49;99379.75;5084546;28;20382;-76
2022/06/02 10:24:52;;;;;;;4.43;2.03;;;;;;;24.92;39.19;99320.28;5084362;28;20316;-75
2022/06/02 10:27:47;;;;;;;3.85;2.17;;;;;;;25.55;37.51;99379.81;5084597;28;20056;-75
2022/06/02 10:30:51;;;;;;;3.75;2.30;;;;;;;25.26;37.06;99349.78;5087242;28;20064;-76
2022/06/02 10:33:54;;;;;;;2.63;1.70;;;;;;;25.23;37.71;99385.41;5074603;28;20114;-76
2022/06/02 10:37:01;;;;;;;3.40;2.15;;;;;;;25.40;37.62;99381.59;5088447;28;20078;-76
2022/06/02 10:40:09;;;;;;;3.38;2.17;;;;;;;25.64;37.70;99386.03;5078646;28;20118;-76
2022/06/02 10:43:10;;;;;;;3.70;2.45;;;;;;;25.75;38.37;99391.03;5087347;28;20056;-76
2022/06/02 10:46:02;;;;;;;4.30;2.67;;;;;;;25.75;38.33;99392.91;5067906;28;20259;-76
2022/06/02 10:49:07;;;;;;;4.25;2.80;;;;;;;25.83;37.50;99387.41;5087765;28;20063;-77
2022/06/02 10:52:15;;;;;;;4.13;2.60;;;;;;;25.87;36.87;99375.16;5088351;28;20109;-77
2022/06/02 10:55:10;;;;;;;3.50;2.35;;;;;;;25.54;36.97;99293.16;5087295;28;20060;-76
2022/06/02 10:58:23;;;;;;;4.55;2.90;;;;;;;26.03;36.52;99366.06;5087598;28;20057;-76
2022/06/02 11:01:24;;;;;;;5.88;2.90;;;;;;;25.94;37.23;99356.28;5087458;28;20068;-76
2022/06/02 11:04:18;;;;;;;3.45;2.42;;;;;;;25.87;37.67;99367.03;5087506;28;20102;-72
2022/06/02 11:07:35;;;;;;;3.93;3.00;;;;;;;25.97;38.08;99364.06;5086888;28;20193;-74
2022/06/02 11:10:27;;;;;;;4.00;2.15;;;;;;;25.95;37.62;99364.25;5087075;28;20788;-73
2022/06/02 11:13:40;;;;;;;5.22;2.42;;;;;;;26.17;35.89;99354.41;5090067;28;20053;-80
2022/06/02 11:16:48;;;;;;;4.32;2.30;;;;;;;26.31;35.42;99355.44;5093478;28;20052;-82
2022/06/02 11:19:56;;;;;;;5.88;3.00;;;;;;;26.45;36.53;99369.03;5091760;28;20064;-81
2022/06/02 11:23:09;;;;;;;3.75;2.88;;;;;;;26.57;35.46;99355.84;5086865;28;20260;-71
2022/06/02 11:26:16;;;;;;;4.05;2.65;;;;;;;26.73;35.50;99357.56;5086949;28;20110;-72
2022/06/02 11:29:34;;;;;;;3.58;2.53;;;;;;;26.65;35.02;99355.78;5086716;28;20056;-72
2022/06/02 11:32:21;;;;;;;4.05;3.05;;;;;;;26.55;36.29;99349.75;5025247;28;20080;-72
2022/06/02 11:35:19;;;;;;;4.13;2.85;;;;;;;26.73;36.20;99343.97;5086321;28;20243;-72
2022/06/02 11:38:24;;;;;;;3.55;2.53;;;;;;;25.77;35.70;99204.41;5086303;28;20382;-72
2022/06/02 11:41:03;;;;;;;4.03;2.88;;;;;;;26.43;36.08;99349.38;5085191;28;20061;-72
2022/06/02 11:43:43;;;;;;;6.85;2.80;;;;;;;25.91;37.10;99298.59;5086951;28;20106;-71
2022/06/02 11:46:49;;;;;;;4.57;2.35;;;;;;;26.45;36.10;99344.59;5086610;28;20057;-70
2022/06/02 11:49:44;;;;;;;8.68;2.63;;;;;;;26.49;35.29;99345.91;5086615;28;20337;-71
2022/06/02 11:52:31;;;;;;;8.23;2.80;;;;;;;26.60;35.29;99351.91;5086572;28;20060;-72
2022/06/02 11:55:27;;;;;;;7.90;2.60;;;;;;;26.54;34.33;99350.78;5086968;28;20109;-71
2022/06/02 11:58:21;;;;;;;3.88;2.25;;;;;;;26.55;35.51;99350.59;5083369;28;20110;-71
2022/06/02 12:01:12;;;;;;;3.28;2.22;;;;;;;26.73;35.63;99357.56;5086436;28;20052;-71
2022/06/02 12:04:25;;;;;;;3.47;2.40;;;;;;;26.66;35.96;99341.16;5085938;28;20248;-71
2022/06/02 12:07:21;;;;;;;4.50;2.90;;;;;;;26.41;36.63;99316.09;5085911;28;20122;-72
2022/06/02 12:10:27;;;;;;;2.67;1.90;;;;;;;26.26;35.76;99317.97;5086021;28;20052;-73
2022/06/02 12:13:10;;;;;;;3.15;2.38;;;;;;;26.31;36.59;99347.28;5085678;28;20056;-73
2022/06/02 12:16:24;;;;;;;4.25;2.22;;;;;;;26.38;37.11;99343.66;5085931;28;20048;-74
2022/06/02 12:19:09;;;;;;;8.70;5.57;;;;;;;26.58;35.79;99330.34;5085704;28;20056;-74
2022/06/02 12:21:58;;;;;;;6.15;2.50;;;;;;;26.80;34.95;99331.31;5085379;28;20056;-77
2022/06/02 12:24:58;;;;;;;3.63;2.50;;;;;;;26.83;34.61;99328.19;5086558;28;20109;-79
2022/06/02 12:27:47;;;;;;;3.45;1.98;;;;;;;26.63;35.42;99318.94;5085647;28;20049;-72
2022/06/02 12:30:27;;;;;;;15.98;9.93;;;;;;;26.42;36.07;99334.09;5085516;28;20111;-73
2022/06/02 12:33:39;;;;;;;6.78;3.78;;;;;;;26.46;35.37;99332.69;5085114;28;20061;-72
2022/06/02 12:36:38;;;;;;;4.85;2.47;;;;;;;26.47;35.32;99334.38;5086123;28;20106;-74
2022/06/02 12:39:20;;;;;;;3.20;1.90;;;;;;;26.42;34.24;99327.81;5086417;28;20109;-75
2022/06/02 12:42:24;;;;;;;4.78;2.65;;;;;;;26.16;34.33;99333.69;5085741;28;20078;-73
2022/06/02 12:45:21;;;;;;;3.67;2.75;;;;;;;26.05;35.37;99332.28;5085259;28;20223;-73
2022/06/02 12:48:20;;;;;;;3.58;2.05;;;;;;;26.03;35.70;99330.78;5085553;28;20185;-75
2022/06/02 12:50:56;;;;;;;3.67;2.58;;;;;;;26.03;36.19;99336.19;5085480;28;20370;-76
2022/06/02 12:54:03;;;;;;;3.70;2.25;;;;;;;26.06;35.54;99325.81;5085132;28;20056;-72
2022/06/02 12:57:00;;;;;;;3.85;2.20;;;;;;;26.12;35.19;99322.34;5085587;28;20044;-73
2022/06/02 13:00:13;;;;;;;3.03;2.15;;;;;;;25.64;34.66;99242.19;5079020;28;20056;-73
2022/06/02 13:03:12;;;;;;;4.18;2.25;;;;;;;26.03;34.96;99279.16;5085329;28;20053;-73
2022/06/02 13:06:14;;;;;;;3.17;2.13;;;;;;;26.39;35.35;99318.16;5084869;28;20098;-74
2022/06/02 13:09:10;;;;;;;3.50;2.20;;;;;;;26.54;34.93;99304.56;5079682;28;20101;-74